createdAt,value
2017-07-15T00:00:25.314Z,0
2017-07-15T00:01:06.203Z,0
2017-07-15T00:01:47.096Z,0
2017-07-15T00:02:27.987Z,0
2017-07-15T00:03:08.877Z,0
2017-07-15T00:03:49.763Z,0
2017-07-15T00:04:30.652Z,0
2017-07-15T00:05:11.546Z,0
2017-07-15T00:05:52.429Z,0
2017-07-15T00:06:33.314Z,0
2017-07-15T00:07:14.208Z,0
2017-07-15T00:07:55.093Z,0
2017-07-15T00:08:35.975Z,0
2017-07-15T00:09:16.866Z,0
2017-07-15T00:09:57.759Z,0
2017-07-15T00:10:38.642Z,0
2017-07-15T00:11:19.525Z,0
2017-07-15T00:12:00.416Z,0
2017-07-15T00:12:41.300Z,0
2017-07-15T00:13:22.195Z,0
2017-07-15T00:14:03.080Z,0
2017-07-15T00:14:43.972Z,0
2017-07-15T00:15:24.861Z,0
2017-07-15T00:16:05.752Z,0
2017-07-15T00:16:46.647Z,0
2017-07-15T00:17:27.530Z,0
2017-07-15T00:18:08.419Z,0
2017-07-15T00:18:49.313Z,0
2017-07-15T00:19:30.199Z,0
2017-07-15T00:20:11.086Z,0
2017-07-15T00:20:51.988Z,0
2017-07-15T00:21:32.879Z,0
2017-07-15T00:22:13.769Z,0
2017-07-15T00:22:54.664Z,0
2017-07-15T00:23:35.545Z,0
2017-07-15T00:24:16.432Z,0
2017-07-15T00:24:57.313Z,0
2017-07-15T00:25:38.207Z,0
2017-07-15T00:26:19.090Z,0
2017-07-15T00:26:59.978Z,0
2017-07-15T00:27:40.864Z,0
2017-07-15T00:28:21.752Z,0
2017-07-15T00:29:02.632Z,0
2017-07-15T00:29:43.517Z,0
2017-07-15T00:30:24.398Z,0
2017-07-15T00:31:05.289Z,0
2017-07-15T00:31:46.159Z,0
2017-07-15T00:32:27.053Z,0
2017-07-15T00:33:07.951Z,0
2017-07-15T00:33:48.819Z,0
2017-07-15T00:34:29.694Z,0
2017-07-15T00:35:10.588Z,0
2017-07-15T00:35:51.496Z,0
2017-07-15T00:36:32.374Z,0
2017-07-15T00:37:13.262Z,0
2017-07-15T00:37:54.166Z,0
2017-07-15T00:38:35.040Z,0
2017-07-15T00:39:15.927Z,0
2017-07-15T00:39:56.804Z,0
2017-07-15T00:40:37.699Z,0
2017-07-15T00:41:18.582Z,0
2017-07-15T00:41:59.469Z,0
2017-07-15T00:42:40.359Z,0
2017-07-15T00:43:21.244Z,0
2017-07-15T00:44:02.133Z,0
2017-07-15T00:44:43.021Z,0
2017-07-15T00:45:23.909Z,0
2017-07-15T00:46:04.816Z,0
2017-07-15T00:46:45.697Z,0
2017-07-15T00:47:26.594Z,0
2017-07-15T00:48:07.479Z,0
2017-07-15T00:48:48.374Z,0
2017-07-15T00:49:29.264Z,0
2017-07-15T00:50:10.162Z,0
2017-07-15T00:50:51.066Z,0
2017-07-15T00:51:31.949Z,0
2017-07-15T00:52:12.828Z,0
2017-07-15T00:52:53.699Z,0
2017-07-15T00:53:34.588Z,0
2017-07-15T00:54:15.485Z,0
2017-07-15T00:54:56.377Z,0
2017-07-15T00:55:37.273Z,0
2017-07-15T00:56:18.164Z,0
2017-07-15T00:56:59.046Z,0
2017-07-15T00:58:58.855Z,0
2017-07-15T00:59:39.752Z,0
2017-07-15T01:00:20.649Z,0
2017-07-15T01:01:01.525Z,0
2017-07-15T01:01:42.426Z,0
2017-07-15T01:02:23.309Z,0
2017-07-15T01:03:04.214Z,0
2017-07-15T01:03:45.118Z,0
2017-07-15T01:04:26.007Z,0
2017-07-15T01:05:06.896Z,0
2017-07-15T01:05:47.780Z,0
2017-07-15T01:06:28.673Z,0
2017-07-15T01:07:09.565Z,0
2017-07-15T01:07:50.439Z,0
2017-07-15T01:08:31.323Z,0
2017-07-15T01:09:12.216Z,0
2017-07-15T01:09:53.089Z,0
2017-07-15T01:10:33.990Z,0
2017-07-15T01:11:14.871Z,0
2017-07-15T01:11:55.765Z,0
2017-07-15T01:12:36.645Z,0
2017-07-15T01:13:17.536Z,0
2017-07-15T01:13:58.424Z,0
2017-07-15T01:14:39.313Z,0
2017-07-15T01:15:20.207Z,0
2017-07-15T01:16:01.093Z,0
2017-07-15T01:16:41.988Z,0
2017-07-15T01:17:22.885Z,0
2017-07-15T01:18:03.774Z,0
2017-07-15T01:18:44.665Z,0
2017-07-15T01:19:25.564Z,0
2017-07-15T01:20:06.452Z,0
2017-07-15T01:20:47.338Z,0
2017-07-15T01:21:28.229Z,0
2017-07-15T01:22:09.128Z,0
2017-07-15T01:22:50.017Z,0
2017-07-15T01:23:30.911Z,0
2017-07-15T01:24:11.799Z,0
2017-07-15T01:24:52.695Z,0
2017-07-15T01:25:33.602Z,0
2017-07-15T01:26:14.495Z,0
2017-07-15T01:26:55.365Z,0
2017-07-15T01:27:36.245Z,0
2017-07-15T01:28:17.131Z,0
2017-07-15T01:28:58.012Z,0
2017-07-15T01:29:38.888Z,0
2017-07-15T01:30:19.785Z,0
2017-07-15T01:31:00.682Z,0
2017-07-15T01:31:41.581Z,0
2017-07-15T01:32:22.477Z,0
2017-07-15T01:33:03.370Z,0
2017-07-15T01:33:44.256Z,0
2017-07-15T01:34:25.151Z,0
2017-07-15T01:35:06.045Z,0
2017-07-15T01:35:46.927Z,0
2017-07-15T01:36:27.814Z,0
2017-07-15T01:37:08.699Z,0
2017-07-15T01:37:49.592Z,0
2017-07-15T01:38:30.477Z,0
2017-07-15T01:39:11.375Z,0
2017-07-15T01:39:52.263Z,0
2017-07-15T01:40:33.148Z,0
2017-07-15T01:41:14.038Z,0
2017-07-15T01:41:54.927Z,0
2017-07-15T01:42:35.822Z,0
2017-07-15T01:43:16.713Z,0
2017-07-15T01:43:57.629Z,0
2017-07-15T01:44:38.500Z,0
2017-07-15T01:45:19.387Z,0
2017-07-15T01:46:00.336Z,0
2017-07-15T01:46:41.245Z,0
2017-07-15T01:47:22.138Z,0
2017-07-15T01:48:03.026Z,0
2017-07-15T01:48:43.928Z,0
2017-07-15T01:49:24.815Z,0
2017-07-15T01:50:05.714Z,0
2017-07-15T01:50:46.604Z,0
2017-07-15T01:51:27.489Z,0
2017-07-15T01:52:08.385Z,0
2017-07-15T01:52:49.272Z,0
2017-07-15T01:53:30.160Z,0
2017-07-15T01:54:11.090Z,0
2017-07-15T01:54:51.946Z,0
2017-07-15T01:55:32.837Z,0
2017-07-15T01:56:13.730Z,0
2017-07-15T01:56:54.617Z,0
2017-07-15T01:57:35.497Z,0
2017-07-15T01:58:16.381Z,0
2017-07-15T01:58:57.275Z,0
2017-07-15T01:59:38.162Z,0
2017-07-15T02:00:19.057Z,0
2017-07-15T02:00:59.941Z,0
2017-07-15T02:01:40.835Z,0
2017-07-15T02:02:21.733Z,0
2017-07-15T02:03:02.628Z,0
2017-07-15T02:03:43.510Z,0
2017-07-15T02:04:24.402Z,0
2017-07-15T02:05:05.289Z,0
2017-07-15T02:05:46.176Z,0
2017-07-15T02:06:27.062Z,0
2017-07-15T02:07:07.960Z,0
2017-07-15T02:07:48.845Z,0
2017-07-15T02:08:29.721Z,0
2017-07-15T02:09:10.605Z,0
2017-07-15T02:09:51.496Z,0
2017-07-15T02:10:32.369Z,0
2017-07-15T02:11:13.256Z,0
2017-07-15T02:11:54.129Z,0
2017-07-15T02:12:35.023Z,0
2017-07-15T02:13:15.905Z,0
2017-07-15T02:13:56.788Z,0
2017-07-15T02:14:37.679Z,0
2017-07-15T02:15:18.579Z,0
2017-07-15T02:15:59.461Z,0
2017-07-15T02:16:40.348Z,0
2017-07-15T02:17:21.242Z,0
2017-07-15T02:18:02.122Z,0
2017-07-15T02:18:43.011Z,4
2017-07-15T02:19:23.935Z,4
2017-07-15T02:20:04.802Z,4
2017-07-15T02:20:45.686Z,4
2017-07-15T02:21:26.627Z,4
2017-07-15T02:22:07.510Z,0
2017-07-15T02:22:48.408Z,0
2017-07-15T02:23:29.279Z,0
2017-07-15T02:24:10.172Z,4
2017-07-15T02:24:51.055Z,4
2017-07-15T02:25:31.934Z,4
2017-07-15T02:26:12.843Z,4
2017-07-15T02:26:53.734Z,4
2017-07-15T02:27:34.631Z,4
2017-07-15T02:28:15.514Z,4
2017-07-15T02:28:56.405Z,4
2017-07-15T02:29:37.302Z,4
2017-07-15T02:31:46.315Z,8
2017-07-15T02:32:27.225Z,8
2017-07-15T02:33:08.076Z,8
2017-07-15T02:33:48.965Z,8
2017-07-15T02:34:29.858Z,8
2017-07-15T02:35:10.742Z,12
2017-07-15T02:35:51.626Z,8
2017-07-15T02:36:32.509Z,12
2017-07-15T02:37:13.401Z,12
2017-07-15T02:37:54.284Z,12
2017-07-15T02:38:35.173Z,16
2017-07-15T02:39:16.071Z,16
2017-07-15T02:39:56.952Z,16
2017-07-15T02:40:37.848Z,20
2017-07-15T02:41:18.732Z,20
2017-07-15T02:41:59.620Z,20
2017-07-15T02:42:40.530Z,20
2017-07-15T02:43:21.414Z,24
2017-07-15T02:44:02.301Z,28
2017-07-15T02:44:43.192Z,28
2017-07-15T02:45:24.091Z,28
2017-07-15T02:46:04.988Z,36
2017-07-15T02:46:45.875Z,36
2017-07-15T02:47:26.771Z,36
2017-07-15T02:48:07.656Z,40
2017-07-15T02:48:48.552Z,40
2017-07-15T02:49:29.449Z,44
2017-07-15T02:50:10.330Z,44
2017-07-15T02:50:51.215Z,48
2017-07-15T02:51:32.101Z,52
2017-07-15T02:52:12.978Z,56
2017-07-15T02:52:53.865Z,60
2017-07-15T02:53:34.746Z,60
2017-07-15T02:54:15.648Z,64
2017-07-15T02:54:56.540Z,72
2017-07-15T02:55:37.446Z,72
2017-07-15T02:56:18.365Z,76
2017-07-15T02:56:59.255Z,80
2017-07-15T02:57:40.147Z,84
2017-07-15T02:58:21.040Z,88
2017-07-15T02:59:01.921Z,92
2017-07-15T02:59:42.812Z,96
2017-07-15T03:00:23.706Z,104
2017-07-15T03:01:04.588Z,112
2017-07-15T03:01:45.500Z,120
2017-07-15T03:02:26.386Z,124
2017-07-15T03:03:07.282Z,132
2017-07-15T03:03:48.171Z,140
2017-07-15T03:04:29.064Z,144
2017-07-15T03:05:09.942Z,156
2017-07-15T03:05:50.836Z,164
2017-07-15T03:06:31.734Z,172
2017-07-15T03:07:12.628Z,184
2017-07-15T03:07:53.514Z,192
2017-07-15T03:08:34.413Z,204
2017-07-15T03:09:15.325Z,220
2017-07-15T03:09:56.225Z,232
2017-07-15T03:10:37.105Z,248
2017-07-15T03:11:17.985Z,268
2017-07-15T03:11:58.869Z,284
2017-07-15T03:12:39.765Z,304
2017-07-15T03:13:20.652Z,320
2017-07-15T03:14:01.544Z,340
2017-07-15T03:14:42.441Z,360
2017-07-15T03:15:23.331Z,376
2017-07-15T03:16:04.223Z,396
2017-07-15T03:16:45.114Z,420
2017-07-15T03:17:25.999Z,440
2017-07-15T03:18:06.897Z,464
2017-07-15T03:18:47.787Z,492
2017-07-15T03:19:28.676Z,512
2017-07-15T03:20:09.575Z,536
2017-07-15T03:20:50.467Z,556
2017-07-15T03:21:31.343Z,584
2017-07-15T03:22:12.237Z,608
2017-07-15T03:22:53.141Z,632
2017-07-15T03:23:34.027Z,652
2017-07-15T03:24:14.899Z,680
2017-07-15T03:24:55.794Z,700
2017-07-15T03:25:36.679Z,720
2017-07-15T03:26:17.553Z,744
2017-07-15T03:26:58.436Z,768
2017-07-15T03:27:39.334Z,796
2017-07-15T03:28:20.211Z,828
2017-07-15T03:29:01.099Z,856
2017-07-15T03:29:42.000Z,888
2017-07-15T03:30:22.888Z,916
2017-07-15T03:31:03.775Z,940
2017-07-15T03:31:44.668Z,960
2017-07-15T03:32:25.563Z,980
2017-07-15T03:33:06.448Z,996
2017-07-15T03:33:47.339Z,1016
2017-07-15T03:34:28.233Z,1024
2017-07-15T03:35:09.124Z,1036
2017-07-15T03:35:50.014Z,1064
2017-07-15T03:36:30.908Z,1088
2017-07-15T03:37:11.789Z,1116
2017-07-15T03:37:52.667Z,1148
2017-07-15T03:38:33.548Z,1168
2017-07-15T03:39:14.442Z,1196
2017-07-15T03:39:55.325Z,1216
2017-07-15T03:40:36.219Z,1240
2017-07-15T03:41:17.131Z,1264
2017-07-15T03:41:58.019Z,1296
2017-07-15T03:42:38.912Z,1328
2017-07-15T03:43:19.804Z,1360
2017-07-15T03:44:00.700Z,1388
2017-07-15T03:44:41.594Z,1416
2017-07-15T03:45:22.487Z,1444
2017-07-15T03:46:03.371Z,1468
2017-07-15T03:46:44.263Z,1500
2017-07-15T03:47:25.144Z,1520
2017-07-15T03:48:06.032Z,1540
2017-07-15T03:48:46.927Z,1560
2017-07-15T03:49:27.822Z,1576
2017-07-15T03:50:08.703Z,1588
2017-07-15T03:50:49.588Z,1604
2017-07-15T03:51:30.474Z,1628
2017-07-15T03:52:11.370Z,1644
2017-07-15T03:52:52.262Z,1668
2017-07-15T03:53:33.151Z,1704
2017-07-15T03:54:14.042Z,1748
2017-07-15T03:54:54.927Z,1804
2017-07-15T03:55:35.822Z,1860
2017-07-15T03:56:16.743Z,1908
2017-07-15T03:56:57.639Z,1948
2017-07-15T03:57:38.521Z,1984
2017-07-15T03:58:19.394Z,2012
2017-07-15T03:59:00.277Z,2036
2017-07-15T03:59:41.163Z,2052
2017-07-15T04:00:22.049Z,2068
2017-07-15T04:01:02.928Z,2084
2017-07-15T04:01:43.819Z,2092
2017-07-15T04:02:24.785Z,2104
2017-07-15T04:03:05.678Z,2112
2017-07-15T04:03:46.559Z,2128
2017-07-15T04:04:27.450Z,2140
2017-07-15T04:05:08.339Z,2164
2017-07-15T04:05:49.229Z,2192
2017-07-15T04:06:30.118Z,2228
2017-07-15T04:07:11.012Z,2276
2017-07-15T04:07:51.902Z,2340
2017-07-15T04:08:32.787Z,2420
2017-07-15T04:09:13.679Z,2508
2017-07-15T04:09:54.577Z,2568
2017-07-15T04:10:35.465Z,2620
2017-07-15T04:11:16.363Z,2668
2017-07-15T04:11:57.257Z,2668
2017-07-15T04:12:38.141Z,2660
2017-07-15T04:13:19.062Z,2652
2017-07-15T04:13:59.932Z,2660
2017-07-15T04:14:40.811Z,2696
2017-07-15T04:15:21.702Z,2744
2017-07-15T04:16:02.609Z,2792
2017-07-15T04:16:43.499Z,2828
2017-07-15T04:17:24.407Z,2848
2017-07-15T04:18:05.350Z,2856
2017-07-15T04:18:46.240Z,2860
2017-07-15T04:19:27.131Z,2856
2017-07-15T04:20:08.093Z,2856
2017-07-15T04:20:49.000Z,2868
2017-07-15T04:21:29.884Z,2888
2017-07-15T04:22:10.764Z,2904
2017-07-15T04:22:51.705Z,2924
2017-07-15T04:23:32.581Z,2956
2017-07-15T04:24:13.485Z,2988
2017-07-15T04:24:54.375Z,3000
2017-07-15T04:25:35.252Z,3048
2017-07-15T04:26:16.167Z,3112
2017-07-15T04:26:57.071Z,3136
2017-07-15T04:27:37.914Z,3128
2017-07-15T04:28:18.792Z,3128
2017-07-15T04:28:59.688Z,3108
2017-07-15T04:29:40.580Z,3084
2017-07-15T04:30:21.462Z,3048
2017-07-15T04:31:02.373Z,3004
2017-07-15T04:31:43.258Z,2988
2017-07-15T04:32:24.143Z,2980
2017-07-15T04:33:05.045Z,2984
2017-07-15T04:33:45.938Z,3016
2017-07-15T04:34:26.821Z,3044
2017-07-15T04:35:07.714Z,3072
2017-07-15T04:35:48.597Z,3104
2017-07-15T04:36:29.476Z,3164
2017-07-15T04:37:10.360Z,3228
2017-07-15T04:37:51.311Z,3300
2017-07-15T04:38:32.220Z,3336
2017-07-15T04:39:13.101Z,3376
2017-07-15T04:39:53.992Z,3408
2017-07-15T04:40:34.889Z,3428
2017-07-15T04:41:15.782Z,3480
2017-07-15T04:41:56.661Z,3528
2017-07-15T04:42:37.554Z,3564
2017-07-15T04:43:18.452Z,3584
2017-07-15T04:43:59.322Z,3592
2017-07-15T04:44:40.205Z,3644
2017-07-15T04:45:21.099Z,3680
2017-07-15T04:46:01.997Z,3704
2017-07-15T04:46:42.874Z,3728
2017-07-15T04:47:23.768Z,3772
2017-07-15T04:48:04.665Z,3796
2017-07-15T04:48:45.527Z,3820
2017-07-15T04:49:26.420Z,3808
2017-07-15T04:50:07.321Z,3780
2017-07-15T04:50:48.225Z,3768
2017-07-15T04:51:29.104Z,3776
2017-07-15T04:52:10.001Z,3784
2017-07-15T04:52:50.895Z,3800
2017-07-15T04:53:31.892Z,3824
2017-07-15T04:54:12.790Z,3816
2017-07-15T04:54:53.678Z,3804
2017-07-15T04:55:34.576Z,3788
2017-07-15T04:56:15.470Z,3792
2017-07-15T04:58:29.813Z,3840
2017-07-15T04:59:10.690Z,3872
2017-07-15T04:59:51.579Z,3904
2017-07-15T05:00:32.474Z,3936
2017-07-15T05:01:13.359Z,3948
2017-07-15T05:01:54.240Z,3956
2017-07-15T05:02:35.133Z,3952
2017-07-15T05:03:16.031Z,3968
2017-07-15T05:03:56.931Z,3976
2017-07-15T05:04:37.825Z,3980
2017-07-15T05:05:18.724Z,3992
2017-07-15T05:05:59.604Z,3996
2017-07-15T05:06:40.502Z,4012
2017-07-15T05:07:21.385Z,4032
2017-07-15T05:08:02.264Z,4056
2017-07-15T05:08:43.164Z,4096
2017-07-15T05:09:24.059Z,4132
2017-07-15T05:10:04.943Z,4164
2017-07-15T05:10:45.830Z,4192
2017-07-15T05:11:26.738Z,4208
2017-07-15T05:12:07.628Z,4216
2017-07-15T05:12:48.528Z,4224
2017-07-15T05:13:29.415Z,4240
2017-07-15T05:14:10.294Z,4256
2017-07-15T05:14:51.177Z,4268
2017-07-15T05:15:32.068Z,4284
2017-07-15T05:16:12.948Z,4296
2017-07-15T05:16:53.845Z,4320
2017-07-15T05:17:34.727Z,4332
2017-07-15T05:18:15.628Z,4348
2017-07-15T05:18:56.507Z,4364
2017-07-15T05:19:37.413Z,4384
2017-07-15T05:20:18.295Z,4396
2017-07-15T05:20:59.192Z,4416
2017-07-15T05:21:40.082Z,4448
2017-07-15T05:22:20.971Z,4472
2017-07-15T05:23:02.637Z,4492
2017-07-15T05:23:43.573Z,4504
2017-07-15T05:24:24.465Z,4528
2017-07-15T05:25:05.354Z,4540
2017-07-15T05:25:46.234Z,4564
2017-07-15T05:26:27.125Z,4572
2017-07-15T05:27:08.020Z,4588
2017-07-15T05:27:48.900Z,4600
2017-07-15T05:28:29.818Z,4612
2017-07-15T05:29:10.702Z,4628
2017-07-15T05:29:51.597Z,4656
2017-07-15T05:30:32.586Z,4684
2017-07-15T05:31:13.507Z,4708
2017-07-15T05:31:54.403Z,4744
2017-07-15T05:32:35.278Z,4764
2017-07-15T05:33:16.159Z,4796
2017-07-15T05:33:57.048Z,4824
2017-07-15T05:34:37.957Z,4864
2017-07-15T05:35:18.818Z,4900
2017-07-15T05:35:59.698Z,4936
2017-07-15T05:36:40.601Z,4968
2017-07-15T05:37:21.499Z,5012
2017-07-15T05:38:02.401Z,5048
2017-07-15T05:38:43.300Z,5080
2017-07-15T05:39:24.176Z,5120
2017-07-15T05:40:05.063Z,5156
2017-07-15T05:40:45.964Z,5176
2017-07-15T05:41:26.836Z,5204
2017-07-15T05:42:07.719Z,5228
2017-07-15T05:42:48.608Z,5252
2017-07-15T05:43:29.502Z,5280
2017-07-15T05:44:10.397Z,5308
2017-07-15T05:44:51.274Z,5328
2017-07-15T05:45:32.158Z,5360
2017-07-15T05:46:13.040Z,5396
2017-07-15T05:46:53.919Z,5428
2017-07-15T05:47:34.820Z,5460
2017-07-15T05:48:15.712Z,5492
2017-07-15T05:48:56.595Z,5536
2017-07-15T05:49:37.496Z,5568
2017-07-15T05:50:18.373Z,5612
2017-07-15T05:50:59.262Z,5648
2017-07-15T05:51:40.180Z,5692
2017-07-15T05:52:21.057Z,5728
2017-07-15T05:53:01.944Z,5772
2017-07-15T05:53:42.853Z,5820
2017-07-15T05:54:23.739Z,5884
2017-07-15T05:55:04.626Z,5956
2017-07-15T05:55:45.511Z,6008
2017-07-15T05:56:26.415Z,6084
2017-07-15T05:57:07.304Z,6152
2017-07-15T05:57:48.185Z,6224
2017-07-15T05:58:29.077Z,6304
2017-07-15T05:59:09.977Z,6396
2017-07-15T05:59:50.863Z,6492
2017-07-15T06:00:31.764Z,6588
2017-07-15T06:01:12.653Z,6700
2017-07-15T06:01:53.552Z,6816
2017-07-15T06:02:34.443Z,6932
2017-07-15T06:03:15.332Z,7052
2017-07-15T06:03:56.226Z,7180
2017-07-15T06:04:37.118Z,7308
2017-07-15T06:05:17.992Z,7440
2017-07-15T06:05:58.860Z,7568
2017-07-15T06:06:39.748Z,7704
2017-07-15T06:07:20.637Z,7860
2017-07-15T06:08:01.563Z,7992
2017-07-15T06:08:42.450Z,8128
2017-07-15T06:09:23.331Z,8280
2017-07-15T06:10:04.219Z,8416
2017-07-15T06:10:45.112Z,8564
2017-07-15T06:11:26.001Z,8720
2017-07-15T06:12:06.886Z,8892
2017-07-15T06:12:47.780Z,9076
2017-07-15T06:13:28.659Z,9272
2017-07-15T06:14:09.590Z,9476
2017-07-15T06:14:50.490Z,9632
2017-07-15T06:15:31.375Z,9792
2017-07-15T06:16:12.266Z,9940
2017-07-15T06:16:53.156Z,10076
2017-07-15T06:17:34.081Z,10184
2017-07-15T06:18:15.013Z,10308
2017-07-15T06:18:55.897Z,10408
2017-07-15T06:19:36.804Z,10512
2017-07-15T06:20:17.690Z,10632
2017-07-15T06:20:58.579Z,10712
2017-07-15T06:21:39.475Z,10836
2017-07-15T06:22:20.365Z,10936
2017-07-15T06:23:01.266Z,11020
2017-07-15T06:23:42.152Z,11052
2017-07-15T06:24:23.034Z,11128
2017-07-15T06:25:03.928Z,11172
2017-07-15T06:25:44.840Z,11244
2017-07-15T06:26:25.726Z,11308
2017-07-15T06:27:06.621Z,11368
2017-07-15T06:27:47.526Z,11420
2017-07-15T06:28:28.399Z,11464
2017-07-15T06:29:09.300Z,11500
2017-07-15T06:29:50.186Z,11536
2017-07-15T06:30:31.081Z,11560
2017-07-15T06:31:11.979Z,11596
2017-07-15T06:31:52.881Z,11632
2017-07-15T06:32:33.770Z,11656
2017-07-15T06:33:14.667Z,11692
2017-07-15T06:33:55.550Z,11704
2017-07-15T06:34:36.446Z,11720
2017-07-15T06:35:17.351Z,11728
2017-07-15T06:35:58.248Z,11756
2017-07-15T06:36:39.152Z,11628
2017-07-15T06:37:20.051Z,11660
2017-07-15T06:38:00.939Z,11700
2017-07-15T06:38:41.846Z,11744
2017-07-15T06:39:22.742Z,11760
2017-07-15T06:40:03.646Z,11796
2017-07-15T06:40:44.547Z,11820
2017-07-15T06:41:25.445Z,11860
2017-07-15T06:42:06.348Z,11896
2017-07-15T06:42:47.249Z,11912
2017-07-15T06:43:28.147Z,11924
2017-07-15T06:44:09.042Z,11960
2017-07-15T06:44:49.946Z,11988
2017-07-15T06:45:30.839Z,11996
2017-07-15T06:46:11.737Z,12012
2017-07-15T06:46:52.653Z,12024
2017-07-15T06:47:33.538Z,12164
2017-07-15T06:48:14.440Z,12196
2017-07-15T06:48:55.343Z,12208
2017-07-15T06:49:36.340Z,12256
2017-07-15T06:50:17.228Z,12260
2017-07-15T06:50:58.122Z,12280
2017-07-15T06:51:39.000Z,12296
2017-07-15T06:52:19.920Z,12312
2017-07-15T06:53:00.827Z,12324
2017-07-15T06:53:41.718Z,12332
2017-07-15T06:54:22.591Z,12352
2017-07-15T06:55:03.456Z,12376
2017-07-15T06:55:44.324Z,12332
2017-07-15T06:56:25.228Z,12460
2017-07-15T06:57:06.129Z,12460
2017-07-15T06:57:47.005Z,12480
2017-07-15T06:58:27.915Z,12508
2017-07-15T06:59:08.798Z,12532
2017-07-15T06:59:49.685Z,12556
2017-07-15T07:00:30.583Z,12596
2017-07-15T07:01:11.479Z,12624
2017-07-15T07:01:52.372Z,12656
2017-07-15T07:02:33.273Z,12672
2017-07-15T07:03:14.171Z,12728
2017-07-15T07:03:55.063Z,12736
2017-07-15T07:04:35.939Z,12768
2017-07-15T07:05:16.827Z,12816
2017-07-15T07:05:57.708Z,12844
2017-07-15T07:06:38.599Z,12848
2017-07-15T07:07:19.528Z,12880
2017-07-15T07:08:00.377Z,12892
2017-07-15T07:08:41.270Z,12904
2017-07-15T07:10:51.286Z,12960
2017-07-15T07:11:32.190Z,13000
2017-07-15T07:12:13.078Z,13036
2017-07-15T07:12:53.990Z,13024
2017-07-15T07:13:34.838Z,13024
2017-07-15T07:14:15.749Z,13116
2017-07-15T07:14:56.639Z,13104
2017-07-15T07:15:37.548Z,13140
2017-07-15T07:16:18.429Z,13188
2017-07-15T07:16:59.322Z,13256
2017-07-15T07:17:40.210Z,13316
2017-07-15T07:18:21.118Z,13400
2017-07-15T07:19:02.008Z,13480
2017-07-15T07:19:42.913Z,13596
2017-07-15T07:20:23.819Z,13748
2017-07-15T07:21:04.706Z,14088
2017-07-15T07:21:45.619Z,14848
2017-07-15T07:22:26.517Z,16960
2017-07-15T07:23:07.418Z,23936
2017-07-15T07:23:48.326Z,32096
2017-07-15T07:24:29.284Z,39200
2017-07-15T07:25:10.188Z,42560
2017-07-15T07:25:51.083Z,43232
2017-07-15T07:26:31.971Z,43296
2017-07-15T07:27:12.865Z,44928
2017-07-15T07:27:53.767Z,47872
2017-07-15T07:28:34.678Z,47232
2017-07-15T07:29:15.579Z,47776
2017-07-15T07:31:29.787Z,59840
2017-07-15T07:32:10.689Z,61440
2017-07-15T07:32:51.588Z,55392
2017-07-15T07:33:32.477Z,52960
2017-07-15T07:34:13.379Z,50976
2017-07-15T07:34:54.283Z,52032
2017-07-15T07:35:35.174Z,53888
2017-07-15T07:36:16.057Z,53408
2017-07-15T07:36:56.938Z,53536
2017-07-15T07:37:37.836Z,56064
2017-07-15T07:38:18.712Z,58880
2017-07-15T07:38:59.614Z,61216
2017-07-15T07:39:40.503Z,62656
2017-07-15T07:40:21.445Z,62880
2017-07-15T07:41:02.339Z,62912
2017-07-15T07:41:43.222Z,62880
2017-07-15T07:42:24.126Z,63008
2017-07-15T07:43:05.004Z,62368
2017-07-15T07:43:45.916Z,60960
2017-07-15T07:44:26.808Z,58912
2017-07-15T07:45:07.694Z,57504
2017-07-15T07:45:48.594Z,53856
2017-07-15T07:46:29.490Z,52928
2017-07-15T07:47:10.361Z,54656
2017-07-15T07:47:51.252Z,56480
2017-07-15T07:48:32.151Z,58592
2017-07-15T07:49:13.038Z,59200
2017-07-15T07:49:53.932Z,59872
2017-07-15T07:50:34.826Z,60992
2017-07-15T07:51:15.708Z,62912
2017-07-15T07:51:56.595Z,64128
2017-07-15T07:52:37.503Z,64416
2017-07-15T07:53:18.408Z,63936
2017-07-15T07:53:59.308Z,62848
2017-07-15T07:54:40.204Z,61760
2017-07-15T07:55:21.069Z,62304
2017-07-15T07:56:01.958Z,59904
2017-07-15T07:56:42.836Z,59168
2017-07-15T07:57:23.726Z,59616
2017-07-15T07:58:04.611Z,57664
2017-07-15T07:58:45.525Z,46976
2017-07-15T07:59:26.408Z,31776
2017-07-15T08:00:07.309Z,17568
2017-07-15T08:00:48.219Z,14572
2017-07-15T08:01:29.112Z,14224
2017-07-15T08:02:10.023Z,14132
2017-07-15T08:02:50.914Z,14116
2017-07-15T08:03:31.816Z,14072
2017-07-15T08:04:12.726Z,14052
2017-07-15T08:04:53.637Z,14040
2017-07-15T08:05:34.547Z,14032
2017-07-15T08:06:15.448Z,14064
2017-07-15T08:06:56.362Z,14072
2017-07-15T08:07:37.268Z,14084
2017-07-15T08:08:18.169Z,14068
2017-07-15T08:08:59.059Z,14088
2017-07-15T08:09:39.957Z,14084
2017-07-15T08:10:20.847Z,14080
2017-07-15T08:11:01.759Z,14104
2017-07-15T08:11:42.663Z,14124
2017-07-15T08:12:23.558Z,14128
2017-07-15T08:13:04.463Z,14200
2017-07-15T08:13:45.357Z,14200
2017-07-15T08:14:26.267Z,14216
2017-07-15T08:15:07.177Z,14340
2017-07-15T08:15:48.094Z,14428
2017-07-15T08:16:29.004Z,14576
2017-07-15T08:17:09.920Z,15140
2017-07-15T08:17:50.838Z,23712
2017-07-15T08:18:31.734Z,44256
2017-07-15T08:19:12.624Z,65024
2017-07-15T08:19:53.544Z,79296
2017-07-15T08:20:34.437Z,80064
2017-07-15T08:21:15.348Z,70528
2017-07-15T08:21:56.248Z,67872
2017-07-15T08:22:37.131Z,70656
2017-07-15T08:23:18.047Z,78048
2017-07-15T08:23:58.935Z,79936
2017-07-15T08:24:39.849Z,80544
2017-07-15T08:25:20.741Z,81728
2017-07-15T08:26:01.637Z,83264
2017-07-15T08:26:42.549Z,78336
2017-07-15T08:27:23.448Z,72352
2017-07-15T08:28:04.363Z,70688
2017-07-15T08:28:45.264Z,73888
2017-07-15T08:29:26.663Z,81824
2017-07-15T08:30:07.565Z,80640
2017-07-15T08:30:48.501Z,80960
2017-07-15T08:31:29.389Z,79104
2017-07-15T08:32:10.340Z,78432
2017-07-15T08:32:51.236Z,74080
2017-07-15T08:33:32.140Z,65888
2017-07-15T08:34:13.070Z,64032
2017-07-15T08:34:53.973Z,67488
2017-07-15T08:35:34.861Z,74368
2017-07-15T08:36:15.770Z,75328
2017-07-15T08:36:56.670Z,75936
2017-07-15T08:37:37.575Z,76736
2017-07-15T08:38:18.477Z,76992
2017-07-15T08:38:59.384Z,76864
2017-07-15T08:39:40.290Z,75680
2017-07-15T08:40:21.185Z,75008
2017-07-15T08:41:02.154Z,75008
2017-07-15T08:41:43.043Z,75264
2017-07-15T08:42:23.948Z,75456
2017-07-15T08:43:04.866Z,76544
2017-07-15T08:43:45.764Z,77216
2017-07-15T08:44:26.677Z,76992
2017-07-15T08:45:07.568Z,80448
2017-07-15T08:45:48.457Z,81952
2017-07-15T08:46:29.361Z,83968
2017-07-15T08:47:10.265Z,84128
2017-07-15T08:47:51.180Z,86112
2017-07-15T08:48:32.089Z,75968
2017-07-15T08:49:13.017Z,71872
2017-07-15T08:49:53.906Z,72192
2017-07-15T08:50:34.816Z,80064
2017-07-15T08:51:15.726Z,80928
2017-07-15T08:51:56.639Z,78176
2017-07-15T08:52:37.536Z,72608
2017-07-15T08:53:18.449Z,68576
2017-07-15T08:53:59.353Z,67296
2017-07-15T08:54:40.424Z,65664
2017-07-15T08:55:21.338Z,65728
2017-07-15T08:56:02.257Z,66816
2017-07-15T08:56:43.156Z,68416
2017-07-15T08:57:24.059Z,70944
2017-07-15T08:58:04.963Z,74208
2017-07-15T08:58:45.873Z,77440
2017-07-15T08:59:26.792Z,81472
2017-07-15T09:00:07.694Z,84384
2017-07-15T09:00:48.604Z,85632
2017-07-15T09:01:29.489Z,85600
2017-07-15T09:02:10.381Z,85024
2017-07-15T09:02:51.275Z,85728
2017-07-15T09:03:32.154Z,85056
2017-07-15T09:04:13.066Z,83808
2017-07-15T09:04:53.983Z,73344
2017-07-15T09:05:34.910Z,69984
2017-07-15T09:06:15.804Z,72224
2017-07-15T09:06:56.725Z,81920
2017-07-15T09:07:37.633Z,81344
2017-07-15T09:08:18.548Z,81760
2017-07-15T09:08:59.466Z,83232
2017-07-15T09:09:40.380Z,84640
2017-07-15T09:10:21.296Z,85664
2017-07-15T09:11:02.234Z,262140
2017-07-15T09:11:43.116Z,86592
2017-07-15T09:12:24.023Z,87616
2017-07-15T09:13:04.933Z,88544
2017-07-15T09:13:45.847Z,88544
2017-07-15T09:14:26.772Z,88384
2017-07-15T09:15:07.682Z,87200
2017-07-15T09:15:48.597Z,86720
2017-07-15T09:16:29.530Z,86368
2017-07-15T09:17:10.462Z,87424
2017-07-15T09:17:51.409Z,87648
2017-07-15T09:18:32.324Z,88480
2017-07-15T09:19:13.242Z,90176
2017-07-15T09:19:54.156Z,89952
2017-07-15T09:20:35.077Z,88608
2017-07-15T09:21:16.048Z,88480
2017-07-15T09:21:56.961Z,88384
2017-07-15T09:22:37.883Z,88448
2017-07-15T09:23:18.803Z,90304